motowan.com alexa rank chart, motowan.com alexa rank daily changes

motowan.com alexa rank chart, motowan.com alexa rank daily changes

motowan.com
Actual rank:
533 327

RANK HISTORY

Date Rank Diff
2017/10/21 533 327 -318 994
2017/10/20 852 321 -956
2017/10/19 853 277 +4 040
2017/10/18 849 237 +4 562
2017/10/17 844 675 +220 155
2017/10/16 624 520 -3 958
2017/10/14 628 478 +127 236
2017/10/13 501 242 -716
2017/10/12 501 958 +1 952
2017/10/11 500 006 +2 072
2017/10/10 497 934 -1 642
2017/10/09 499 576 -2 301
2017/10/08 501 877 -1 071
2017/10/07 502 948 -1 234
2017/10/06 504 182 -553
2017/10/05 504 735 +1 604
2017/10/04 503 131 +1 917
2017/10/03 501 214 -1 537
2017/10/02 502 751 +79 696
2017/10/01 423 055 -13 043
2017/09/30 436 098 -7 544
2017/09/29 443 642 +1 684
2017/09/28 441 958 +114 716
2017/09/27 327 242 +574
2017/09/26 326 668 -1 076
2017/09/25 327 744 -1 158
2017/09/24 328 902 -571
2017/09/23 329 473 +39 606
2017/09/22 289 867 +1 102
2017/09/20 288 765 +377
2017/09/19 288 388 -520
2017/09/18 288 908 -1 004
2017/09/17 289 912 -30 488
2017/09/16 320 400 +89
2017/09/15 320 311 +1 592
2017/09/14 318 719 +7 046
2017/09/13 311 673 +1 005
2017/09/12 310 668 -870
2017/09/11 311 538 -1 328
2017/09/10 312 866 -417
2017/09/09 313 283 +104
2017/09/08 313 179 +1 560
2017/09/07 311 619 +1 694
2017/09/06 309 925 +454
2017/09/05 309 471 -988
2017/09/04 310 459 -1 065
2017/09/03 311 524 -650
2017/09/02 312 174 -39 231
2017/09/01 351 405 +1 879
2017/08/31 349 526 +39 074
2017/08/30 310 452 -35 166
2017/08/29 345 618 +33 350
2017/08/28 312 268 -103 123
2017/08/27 415 391 -818
2017/08/26 416 209 -375
2017/08/25 416 584 +1 908
2017/08/24 414 676 +2 395
2017/08/23 412 281 +553
2017/08/22 411 728

WIDGET FOR YOUR SITE

DOMAINS WITH THE NEAREST RANK

Domain Rank
ancientmesopotamians.com 533 322
beatfilmfestival.ru 533 323
pelis8.info 533 324
lootlo.pk 533 325
skypelogoped.ru 533 326
motowan.com 533 327
rtvforum.net 533 328
wisers.com 533 329
usgraduatesblog.com 533 330
bagedy.com 533 331
arpensp.org.br 533 332

DOMAINS WITH THE NEAREST RANK BY TLD .com

Domain Rank
caluyadesign.com 533 312
iviesystems.com 533 317
obee.com 533 319
kinetic-revolution.com 533 320
ancientmesopotamians.com 533 322
motowan.com 533 327
wisers.com 533 329
usgraduatesblog.com 533 330
bagedy.com 533 331
angela51.com 533 337
dronelawshq.com 533 338